Time;durP1;ratioP1;P1;durP2;ratioP2;P2;SDS_P1;SDS_P2;PMS_P1;PMS_P2;Temp;Humidity;BMP_temperature;BMP_pressure;BME280_temperature;BME280_humidity;BME280_pressure;Samples;Min_cycle;Max_cycle;Signal;HPM_P1;HPM_P2
2022/04/13 00:00:20;;;;;;;82.80;52.03;;;19.60;56.10;;;;;;4947131;28;94657;-32
2022/04/13 00:02:46;;;;;;;77.97;52.13;;;19.60;56.10;;;;;;4947305;28;92966;-32
2022/04/13 00:05:11;;;;;;;80.38;52.05;;;19.50;56.10;;;;;;4950502;28;90760;-32
2022/04/13 00:07:37;;;;;;;79.38;52.25;;;19.60;56.20;;;;;;4950781;28;90058;-32
2022/04/13 00:10:04;;;;;;;78.25;51.92;;;19.60;56.20;;;;;;4950896;28;90857;-33
2022/04/13 00:12:30;;;;;;;79.10;51.95;;;19.60;56.20;;;;;;4957915;28;90469;-32
2022/04/13 00:14:56;;;;;;;79.45;52.42;;;19.60;56.20;;;;;;4948166;28;89537;-32
2022/04/13 00:17:22;;;;;;;78.93;51.88;;;19.50;56.10;;;;;;4940536;28;90380;-32
2022/04/13 00:19:48;;;;;;;79.30;51.90;;;19.50;56.10;;;;;;4944185;28;99382;-32
2022/04/13 00:22:13;;;;;;;79.88;52.00;;;19.50;56.20;;;;;;4947850;28;90481;-32
2022/04/13 00:24:39;;;;;;;78.30;51.97;;;19.50;56.20;;;;;;4953393;28;89572;-32
2022/04/13 00:27:05;;;;;;;78.40;51.95;;;19.50;56.20;;;;;;4952286;28;90090;-32
2022/04/13 00:29:30;;;;;;;78.38;52.05;;;19.50;56.20;;;;;;4956549;28;90666;-32
2022/04/13 00:31:59;;;;;;;78.22;51.80;;;19.50;56.20;;;;;;4953852;28;90246;-32
2022/04/13 00:34:25;;;;;;;80.00;52.17;;;19.50;56.20;;;;;;4954883;28;90305;-32
2022/04/13 00:36:51;;;;;;;78.28;51.70;;;19.50;56.20;;;;;;4948294;28;93016;-31
2022/04/13 00:39:16;;;;;;;77.63;51.83;;;19.50;56.20;;;;;;4950801;28;90240;-32
2022/04/13 00:41:42;;;;;;;77.88;52.05;;;19.50;56.30;;;;;;4945361;28;91891;-32
2022/04/13 00:44:10;;;;;;;78.35;51.78;;;19.40;56.20;;;;;;4944133;28;90160;-32
2022/04/13 00:46:36;;;;;;;77.85;51.75;;;19.50;56.20;;;;;;4941603;28;97902;-32
2022/04/13 00:49:06;;;;;;;79.30;51.72;;;19.50;56.20;;;;;;4940383;28;90590;-32
2022/04/13 00:51:32;;;;;;;78.53;51.90;;;19.40;56.20;;;;;;4944625;28;92180;-32
2022/04/13 00:53:59;;;;;;;77.45;51.85;;;19.40;56.20;;;;;;4945250;28;90779;-32
2022/04/13 00:56:27;;;;;;;78.40;51.67;;;19.40;56.20;;;;;;4948402;28;89912;-31
2022/04/13 00:58:56;;;;;;;79.38;51.75;;;19.40;56.20;;;;;;4951329;28;90323;-31
2022/04/13 01:01:26;;;;;;;78.30;51.88;;;19.40;56.20;;;;;;4946889;28;92054;-32
2022/04/13 01:03:54;;;;;;;77.25;51.85;;;19.40;56.20;;;;;;4941902;28;90099;-32
2022/04/13 01:06:20;;;;;;;80.38;52.08;;;19.40;56.20;;;;;;4948949;28;90165;-32
2022/04/13 01:08:49;;;;;;;78.35;51.63;;;19.40;56.20;;;;;;4949237;28;90153;-32
2022/04/13 01:11:16;;;;;;;76.90;51.50;;;19.40;56.20;;;;;;4947633;28;90038;-32
2022/04/13 01:13:42;;;;;;;77.57;51.88;;;19.40;56.30;;;;;;4943152;28;93791;-32
2022/04/13 01:16:08;;;;;;;77.70;51.67;;;19.40;56.20;;;;;;4944318;28;90007;-31
2022/04/13 01:18:34;;;;;;;77.03;51.65;;;19.40;56.20;;;;;;4941641;28;92145;-31
2022/04/13 01:21:00;;;;;;;77.78;51.58;;;19.40;56.20;;;;;;4942189;28;91912;-31
2022/04/13 01:23:27;;;;;;;77.55;51.53;;;19.40;56.30;;;;;;4947430;28;89977;-31
2022/04/13 01:25:54;;;;;;;77.32;51.65;;;19.30;56.20;;;;;;4953375;28;91553;-31
2022/04/13 01:28:21;;;;;;;77.53;51.30;;;19.30;56.20;;;;;;4957745;28;90131;-31
2022/04/13 01:30:46;;;;;;;77.85;51.45;;;19.30;56.20;;;;;;4950524;28;95366;-31
2022/04/13 01:33:12;;;;;;;79.40;51.60;;;19.30;56.30;;;;;;4950945;28;89826;-32
2022/04/13 01:35:38;;;;;;;77.40;51.40;;;19.30;56.30;;;;;;4953926;28;89203;-32
2022/04/13 01:38:04;;;;;;;77.22;51.65;;;19.30;56.30;;;;;;4955430;28;92394;-32
2022/04/13 01:40:30;;;;;;;78.40;51.65;;;19.30;56.30;;;;;;4949768;28;90612;-32
2022/04/13 01:42:56;;;;;;;77.03;51.70;;;19.30;56.30;;;;;;4952192;28;92292;-32
2022/04/13 01:45:22;;;;;;;77.80;51.67;;;19.30;56.30;;;;;;4949481;28;90139;-32
2022/04/13 01:47:51;;;;;;;76.97;51.67;;;19.30;56.30;;;;;;4943462;28;94164;-31
2022/04/13 01:50:18;;;;;;;77.63;51.60;;;19.30;56.30;;;;;;4948620;28;90969;-32
2022/04/13 01:52:46;;;;;;;77.13;51.53;;;19.30;56.30;;;;;;4945573;28;90002;-32
2022/04/13 01:55:11;;;;;;;76.72;51.35;;;19.30;56.30;;;;;;4954457;28;90069;-31
2022/04/13 01:57:38;;;;;;;76.75;51.88;;;19.20;56.30;;;;;;4937556;28;90507;-32
2022/04/13 02:00:05;;;;;;;77.93;51.75;;;19.20;56.30;;;;;;4951689;28;91808;-32
2022/04/13 02:02:31;;;;;;;77.50;51.55;;;19.20;56.30;;;;;;4948831;28;89919;-32
2022/04/13 02:04:57;;;;;;;77.75;51.60;;;19.20;56.30;;;;;;4948628;28;89881;-32
2022/04/13 02:07:23;;;;;;;77.03;51.53;;;19.20;56.40;;;;;;4951208;28;90958;-32
2022/04/13 02:09:49;;;;;;;78.03;51.55;;;19.20;56.30;;;;;;4945843;28;92083;-32
2022/04/13 02:12:14;;;;;;;79.75;51.58;;;19.20;56.30;;;;;;4951198;28;90469;-31
2022/04/13 02:14:40;;;;;;;76.70;51.42;;;19.20;56.30;;;;;;4950666;28;90178;-31
2022/04/13 02:17:06;;;;;;;78.22;51.75;;;19.20;56.40;;;;;;4945153;28;90223;-32
2022/04/13 02:19:32;;;;;;;77.07;51.53;;;19.20;56.40;;;;;;4944223;28;91936;-32
2022/04/13 02:21:57;;;;;;;77.50;51.45;;;19.20;56.40;;;;;;4950392;28;90006;-32
2022/04/13 02:24:23;;;;;;;78.20;51.63;;;19.20;56.40;;;;;;4946181;28;91311;-31
2022/04/13 02:26:48;;;;;;;77.13;51.70;;;19.10;56.40;;;;;;4957233;28;92670;-31
2022/04/13 02:29:14;;;;;;;77.03;51.75;;;19.10;56.40;;;;;;4948425;28;90219;-32
2022/04/13 02:31:40;;;;;;;76.32;51.55;;;19.10;56.40;;;;;;4953898;28;90905;-32
2022/04/13 02:34:06;;;;;;;79.80;51.45;;;19.10;56.40;;;;;;4947486;28;89969;-32
2022/04/13 02:36:32;;;;;;;76.75;51.45;;;19.10;56.40;;;;;;4951429;28;90203;-32
2022/04/13 02:38:58;;;;;;;77.43;51.58;;;19.10;56.40;;;;;;4944248;28;89894;-32
2022/04/13 02:41:24;;;;;;;77.82;51.50;;;19.10;57.00;;;;;;4951223;28;91112;-32
2022/04/13 02:43:49;;;;;;;77.43;51.63;;;19.10;56.40;;;;;;4947087;28;90043;-32
2022/04/13 02:46:15;;;;;;;78.28;51.40;;;19.10;56.40;;;;;;4939532;28;91026;-33
2022/04/13 02:48:41;;;;;;;76.28;51.40;;;19.10;56.50;;;;;;4945464;28;89354;-32
2022/04/13 02:51:07;;;;;;;77.53;51.85;;;19.10;56.50;;;;;;4953370;28;89489;-32
2022/04/13 02:53:33;;;;;;;76.90;51.53;;;19.00;56.50;;;;;;4963064;28;90243;-32
2022/04/13 02:55:59;;;;;;;76.72;51.53;;;19.00;57.10;;;;;;4957433;28;92688;-32
2022/04/13 02:58:25;;;;;;;76.93;51.65;;;19.00;56.50;;;;;;4952128;28;90687;-32
2022/04/13 03:00:50;;;;;;;76.65;51.63;;;19.00;56.50;;;;;;4948518;28;92549;-32
2022/04/13 03:03:16;;;;;;;76.57;51.53;;;19.00;56.50;;;;;;4946323;28;89916;-32
2022/04/13 03:05:43;;;;;;;76.07;51.42;;;19.00;56.50;;;;;;4948804;28;94558;-32
2022/04/13 03:08:09;;;;;;;76.60;51.53;;;19.00;56.50;;;;;;4946660;28;89697;-32
2022/04/13 03:10:35;;;;;;;76.20;51.42;;;19.00;56.50;;;;;;4933194;28;90177;-32
2022/04/13 03:13:01;;;;;;;77.10;51.50;;;19.00;56.60;;;;;;4948377;28;89205;-32
2022/04/13 03:15:27;;;;;;;76.15;51.47;;;19.00;56.60;;;;;;4946356;28;90110;-32
2022/04/13 03:17:52;;;;;;;76.78;51.58;;;19.00;56.50;;;;;;4941919;28;89803;-32
2022/04/13 03:20:18;;;;;;;76.55;51.65;;;19.00;56.50;;;;;;4952244;28;90921;-32
2022/04/13 03:22:45;;;;;;;75.88;51.35;;;19.00;56.50;;;;;;4944693;28;91108;-33
2022/04/13 03:25:11;;;;;;;76.55;51.63;;;18.90;56.50;;;;;;4949048;28;90803;-32
2022/04/13 03:27:37;;;;;;;76.78;51.53;;;18.90;56.50;;;;;;4943333;28;90109;-32
2022/04/13 03:30:04;;;;;;;76.28;51.40;;;18.90;56.50;;;;;;4949241;28;90059;-32
2022/04/13 03:32:37;;;;;;;77.00;51.58;;;18.90;56.50;;;;;;4944631;28;90303;-32
2022/04/13 03:35:07;;;;;;;75.95;51.05;;;18.90;56.50;;;;;;4944148;28;90670;-32
2022/04/13 03:37:33;;;;;;;77.40;51.70;;;18.90;56.60;;;;;;4949127;28;89560;-32
2022/04/13 03:39:58;;;;;;;76.75;51.25;;;18.90;56.60;;;;;;4950285;28;89762;-32
2022/04/13 03:42:24;;;;;;;76.05;51.20;;;18.90;56.60;;;;;;4944676;28;93848;-32
2022/04/13 03:44:50;;;;;;;76.43;51.45;;;18.90;56.60;;;;;;4942655;28;91559;-32
2022/04/13 03:47:15;;;;;;;75.75;51.35;;;18.90;56.60;;;;;;4948914;28;91768;-32
2022/04/13 03:49:41;;;;;;;77.72;51.53;;;18.90;56.60;;;;;;4945232;28;89637;-32
2022/04/13 03:52:07;;;;;;;76.05;51.35;;;18.80;56.60;;;;;;4942398;28;90045;-32
2022/04/13 03:54:33;;;;;;;77.50;51.38;;;18.80;56.60;;;;;;4944750;28;90348;-32
2022/04/13 03:56:59;;;;;;;76.10;51.28;;;18.80;56.60;;;;;;4952676;28;90567;-32
2022/04/13 03:59:26;;;;;;;77.65;51.65;;;18.80;56.70;;;;;;4950202;28;89824;-32
2022/04/13 04:01:52;;;;;;;76.28;51.55;;;18.80;56.70;;;;;;4945570;28;89209;-32
2022/04/13 04:04:18;;;;;;;76.38;51.13;;;18.80;56.70;;;;;;4948506;28;90721;-32
2022/04/13 04:06:45;;;;;;;76.35;51.15;;;18.80;56.60;;;;;;4941289;28;89798;-32
2022/04/13 04:09:10;;;;;;;76.50;51.67;;;18.80;56.60;;;;;;4950240;28;92113;-32
2022/04/13 04:11:36;;;;;;;76.05;51.25;;;18.80;57.20;;;;;;4944973;28;89975;-32
2022/04/13 04:14:02;;;;;;;75.35;51.30;;;18.80;57.20;;;;;;4944517;28;91436;-32
2022/04/13 04:16:27;;;;;;;76.00;51.30;;;18.70;56.60;;;;;;4946776;28;90308;-32
2022/04/13 04:18:53;;;;;;;75.65;51.35;;;18.80;56.60;;;;;;4946259;28;94655;-32
2022/04/13 04:21:19;;;;;;;76.55;51.58;;;18.80;56.60;;;;;;4948232;28;89816;-31
2022/04/13 04:23:44;;;;;;;75.97;51.25;;;18.80;56.50;;;;;;4948292;28;91777;-32
2022/04/13 04:26:11;;;;;;;76.15;51.20;;;18.80;56.60;;;;;;4949335;28;88736;-32
2022/04/13 04:28:37;;;;;;;76.82;51.30;;;18.80;56.60;;;;;;4947217;28;89810;-31
2022/04/13 04:31:02;;;;;;;76.57;51.35;;;18.80;56.60;;;;;;4942633;28;90300;-32
2022/04/13 04:33:28;;;;;;;77.18;51.42;;;18.80;56.50;;;;;;4945117;28;91369;-32
2022/04/13 04:35:54;;;;;;;75.85;51.28;;;18.70;56.60;;;;;;4955201;28;89847;-32
2022/04/13 04:38:20;;;;;;;76.80;51.55;;;18.70;56.50;;;;;;4952779;28;89516;-32
2022/04/13 04:40:46;;;;;;;78.53;51.40;;;18.70;56.50;;;;;;4953842;28;91381;-32
2022/04/13 04:43:11;;;;;;;76.50;51.63;;;18.70;56.50;;;;;;4945523;28;89899;-32
2022/04/13 04:45:37;;;;;;;75.93;51.25;;;18.70;56.50;;;;;;4942876;28;91187;-32
2022/04/13 04:48:04;;;;;;;75.82;51.45;;;18.70;56.60;;;;;;4945742;28;90215;-31
2022/04/13 04:50:31;;;;;;;76.43;51.45;;;18.70;56.50;;;;;;4929218;28;98667;-32
2022/04/13 04:52:57;;;;;;;77.85;51.13;;;18.70;56.50;;;;;;4947678;28;93365;-32
2022/04/13 04:55:23;;;;;;;76.88;51.47;;;18.70;56.50;;;;;;4949429;28;93326;-32
2022/04/13 04:57:49;;;;;;;74.95;51.20;;;18.70;56.60;;;;;;4950063;28;92672;-32
2022/04/13 05:00:18;;;;;;;76.18;51.50;;;18.70;56.50;;;;;;4951174;28;89813;-32
2022/04/13 05:02:45;;;;;;;75.55;51.13;;;18.70;56.50;;;;;;4947170;28;92061;-32
2022/04/13 05:05:13;;;;;;;76.10;51.47;;;18.70;56.60;;;;;;4962385;28;89938;-32
2022/04/13 05:07:40;;;;;;;75.60;51.58;;;18.70;56.50;;;;;;4952260;28;90421;-32
2022/04/13 05:10:07;;;;;;;75.70;51.25;;;18.70;56.60;;;;;;4953813;28;90245;-31
2022/04/13 05:12:44;;;;;;;76.15;51.33;;;18.70;56.60;;;;;;4955260;28;90028;-32
2022/04/13 05:15:11;;;;;;;75.80;51.47;;;18.70;56.60;;;;;;4949090;28;89857;-32
2022/04/13 05:17:37;;;;;;;75.80;51.42;;;18.70;56.60;;;;;;4952149;28;89846;-34
2022/04/13 05:20:04;;;;;;;75.88;51.30;;;18.70;56.60;;;;;;4945887;28;93321;-33
2022/04/13 05:22:30;;;;;;;76.35;50.97;;;18.70;56.50;;;;;;4950166;28;91182;-32
2022/04/13 05:25:04;;;;;;;76.22;51.10;;;18.70;56.50;;;;;;4952013;28;91426;-32
2022/04/13 05:27:31;;;;;;;75.68;51.13;;;18.70;56.50;;;;;;4952010;28;89832;-32
2022/04/13 05:29:56;;;;;;;77.38;51.72;;;18.70;56.50;;;;;;4949135;28;90281;-32
2022/04/13 05:32:22;;;;;;;76.30;51.20;;;18.70;56.50;;;;;;4947619;28;90389;-32
2022/04/13 05:34:47;;;;;;;77.32;51.50;;;18.70;56.50;;;;;;4948568;28;90461;-32
2022/04/13 05:37:13;;;;;;;75.78;51.45;;;18.70;56.50;;;;;;4944258;28;90354;-31
2022/04/13 05:39:39;;;;;;;75.82;51.33;;;18.70;56.50;;;;;;4950413;28;88880;-32
2022/04/13 05:42:05;;;;;;;75.50;51.30;;;18.70;56.50;;;;;;4949700;28;90978;-32
2022/04/13 05:44:30;;;;;;;76.07;51.63;;;18.70;56.50;;;;;;4949355;28;90855;-33
2022/04/13 05:46:56;;;;;;;76.40;51.40;;;18.70;56.60;;;;;;4948785;28;90855;-33
2022/04/13 05:49:22;;;;;;;75.28;51.15;;;18.70;56.50;;;;;;4948604;28;90020;-33
2022/04/13 05:51:47;;;;;;;75.57;51.47;;;18.70;56.60;;;;;;4947308;28;90638;-33
2022/04/13 05:54:13;;;;;;;76.53;51.33;;;18.70;56.60;;;;;;4956043;28;89787;-32
2022/04/13 05:56:38;;;;;;;76.63;51.72;;;18.70;56.60;;;;;;4943655;28;89946;-33
2022/04/13 05:59:04;;;;;;;76.18;51.10;;;18.70;56.60;;;;;;4954797;28;89707;-32
2022/04/13 06:01:30;;;;;;;76.38;51.38;;;18.70;56.60;;;;;;4950628;28;94636;-33
2022/04/13 06:03:55;;;;;;;76.47;51.58;;;18.70;56.60;;;;;;4948183;28;89401;-32
2022/04/13 06:06:25;;;;;;;76.65;51.38;;;18.70;56.60;;;;;;4949494;28;90706;-33
2022/04/13 06:08:51;;;;;;;78.15;51.33;;;18.70;56.60;;;;;;4951054;28;90266;-33
2022/04/13 06:11:16;;;;;;;78.72;51.58;;;18.70;56.70;;;;;;4964186;28;91038;-33
2022/04/13 06:13:42;;;;;;;75.78;51.47;;;18.70;56.70;;;;;;4942817;28;90426;-33
2022/04/13 06:16:08;;;;;;;78.05;51.72;;;18.70;56.70;;;;;;4945982;28;89996;-33
2022/04/13 06:18:33;;;;;;;76.68;51.65;;;18.70;56.60;;;;;;4944615;28;90368;-33
2022/04/13 06:20:59;;;;;;;77.57;51.45;;;18.70;56.70;;;;;;4940454;28;90571;-33
2022/04/13 06:23:25;;;;;;;78.15;51.75;;;18.70;56.70;;;;;;4939508;28;90355;-33
2022/04/13 06:25:50;;;;;;;78.20;51.53;;;18.70;56.80;;;;;;4961632;28;89930;-33
2022/04/13 06:28:16;;;;;;;79.93;51.58;;;18.70;56.80;;;;;;4956479;28;90440;-33
2022/04/13 06:30:43;;;;;;;77.32;51.72;;;18.70;56.80;;;;;;4955456;28;89957;-33
2022/04/13 06:33:09;;;;;;;77.93;52.08;;;18.70;56.90;;;;;;4961514;28;91201;-33
2022/04/13 06:35:36;;;;;;;78.32;51.70;;;18.80;56.90;;;;;;4953953;28;90974;-33
2022/04/13 06:38:02;;;;;;;78.53;52.13;;;18.70;56.80;;;;;;4948265;28;93989;-33
2022/04/13 06:40:28;;;;;;;77.70;51.85;;;18.80;56.70;;;;;;4951607;28;90340;-33
2022/04/13 06:42:55;;;;;;;78.30;52.13;;;18.80;57.00;;;;;;4949411;28;90395;-33
2022/04/13 06:45:22;;;;;;;80.10;52.47;;;18.80;56.70;;;;;;4957274;28;89546;-33
2022/04/13 06:47:48;;;;;;;78.68;51.92;;;18.80;56.70;;;;;;4951853;28;89874;-33
2022/04/13 06:50:13;;;;;;;79.38;52.08;;;18.80;56.70;;;;;;4947831;28;90699;-33
2022/04/13 06:52:40;;;;;;;77.15;51.92;;;18.80;56.60;;;;;;4946271;28;90763;-33
2022/04/13 06:55:09;;;;;;;79.13;52.35;;;18.80;56.60;;;;;;4961353;28;89986;-33
2022/04/13 06:57:37;;;;;;;77.93;52.20;;;18.80;56.60;;;;;;4957757;28;90325;-33
2022/04/13 07:00:05;;;;;;;79.35;51.92;;;18.80;56.50;;;;;;4949871;28;91941;-33
2022/04/13 07:02:30;;;;;;;77.15;51.92;;;18.80;56.50;;;;;;4947096;28;91131;-32
2022/04/13 07:04:56;;;;;;;77.90;51.65;;;18.80;56.60;;;;;;4953230;28;90015;-33
2022/04/13 07:07:21;;;;;;;80.50;51.67;;;18.80;56.60;;;;;;4943299;28;89919;-33
2022/04/13 07:09:47;;;;;;;76.68;51.75;;;18.80;56.60;;;;;;4945661;28;91602;-33
2022/04/13 07:12:13;;;;;;;77.40;51.95;;;18.80;56.70;;;;;;4947359;28;91980;-33
2022/04/13 07:14:41;;;;;;;77.22;52.00;;;18.80;56.60;;;;;;4947051;28;89874;-33
2022/04/13 07:17:08;;;;;;;77.20;52.03;;;18.70;56.60;;;;;;4947233;28;90764;-33
2022/04/13 07:19:34;;;;;;;77.40;51.67;;;18.80;56.70;;;;;;4939845;28;91255;-33
2022/04/13 07:22:00;;;;;;;78.18;51.85;;;18.80;56.60;;;;;;4946632;28;89570;-33
2022/04/13 07:24:27;;;;;;;78.13;51.70;;;18.80;56.60;;;;;;4954785;28;91358;-33
2022/04/13 07:26:53;;;;;;;78.50;51.97;;;18.80;56.50;;;;;;4946602;28;90001;-32
2022/04/13 07:29:19;;;;;;;78.70;51.80;;;18.80;56.60;;;;;;4955004;28;91354;-32
2022/04/13 07:31:45;;;;;;;77.53;52.08;;;18.80;56.60;;;;;;4958141;28;90235;-32
2022/04/13 07:34:10;;;;;;;77.75;51.63;;;18.80;56.60;;;;;;4960496;28;90472;-32
2022/04/13 07:36:36;;;;;;;79.15;51.95;;;18.80;56.70;;;;;;4955998;28;89764;-32
2022/04/13 07:39:02;;;;;;;78.32;52.08;;;18.80;56.70;;;;;;4956431;28;90944;-32
2022/04/13 07:41:29;;;;;;;78.07;51.90;;;18.80;56.70;;;;;;4955708;28;89705;-34
2022/04/13 07:43:55;;;;;;;78.53;51.72;;;18.80;56.80;;;;;;4956341;28;89872;-32
2022/04/13 07:46:22;;;;;;;77.63;52.05;;;18.80;56.80;;;;;;4946017;28;90503;-32
2022/04/13 07:48:47;;;;;;;77.95;51.55;;;18.80;56.80;;;;;;4949407;28;91098;-31
2022/04/13 07:51:13;;;;;;;79.18;52.13;;;18.80;56.80;;;;;;4945258;28;91566;-32
2022/04/13 07:53:39;;;;;;;79.90;51.75;;;18.80;56.90;;;;;;4954234;28;89467;-32
2022/04/13 07:56:05;;;;;;;77.95;51.95;;;18.80;56.90;;;;;;4950295;28;89856;-32
2022/04/13 07:58:30;;;;;;;78.88;52.28;;;18.80;56.90;;;;;;4947785;28;89907;-32
2022/04/13 08:00:56;;;;;;;79.97;52.03;;;18.80;56.90;;;;;;4951135;28;89948;-32
2022/04/13 08:03:21;;;;;;;77.70;52.00;;;18.80;56.90;;;;;;4949354;28;91500;-32
2022/04/13 08:05:47;;;;;;;78.00;51.92;;;18.80;57.00;;;;;;4947701;28;89088;-32
2022/04/13 08:08:13;;;;;;;79.85;52.08;;;18.80;57.00;;;;;;4944904;28;90552;-32
2022/04/13 08:10:38;;;;;;;78.70;52.03;;;18.80;57.00;;;;;;4949680;28;89912;-34
2022/04/13 08:13:04;;;;;;;79.65;52.08;;;18.80;57.10;;;;;;4948571;28;95290;-32
2022/04/13 08:15:30;;;;;;;78.90;52.00;;;18.80;57.00;;;;;;4945428;28;91576;-32
2022/04/13 08:17:55;;;;;;;80.53;52.13;;;18.80;57.00;;;;;;4954705;28;90580;-32
2022/04/13 08:20:21;;;;;;;78.10;52.35;;;18.80;57.10;;;;;;4940992;28;90876;-32
2022/04/13 08:22:47;;;;;;;78.90;52.17;;;18.80;57.10;;;;;;4945472;28;89551;-32
2022/04/13 08:25:13;;;;;;;80.93;52.42;;;18.80;57.10;;;;;;4951222;28;91285;-31
2022/04/13 08:27:39;;;;;;;80.30;52.17;;;18.80;57.10;;;;;;4949757;28;91827;-32
2022/04/13 08:30:05;;;;;;;82.47;52.80;;;18.80;57.10;;;;;;4945371;28;90401;-32
2022/04/13 08:32:31;;;;;;;78.78;52.25;;;18.80;57.10;;;;;;4951924;28;90372;-32
2022/04/13 08:34:57;;;;;;;80.70;52.33;;;18.80;57.20;;;;;;4961755;28;89810;-32
2022/04/13 08:37:23;;;;;;;77.55;52.30;;;18.80;57.20;;;;;;4947650;28;91441;-32
2022/04/13 08:39:49;;;;;;;79.97;52.35;;;18.80;57.30;;;;;;4959487;28;91354;-32
2022/04/13 08:42:29;;;;;;;80.85;52.65;;;18.80;57.70;;;;;;4960442;28;90043;-32
2022/04/13 08:45:00;;;;;;;81.20;52.58;;;18.90;57.70;;;;;;4960951;28;92448;-33
2022/04/13 08:47:26;;;;;;;81.25;52.75;;;18.90;58.00;;;;;;4964708;28;90056;-32
2022/04/13 08:49:52;;;;;;;82.20;52.85;;;18.90;58.10;;;;;;4951684;28;91657;-33
2022/04/13 08:52:31;;;;;;;83.53;52.97;;;18.90;58.90;;;;;;4950180;28;90421;-32
2022/04/13 08:55:06;;;;;;;81.35;53.13;;;19.00;58.40;;;;;;4953198;28;89575;-32
2022/04/13 08:57:41;;;;;;;82.78;52.83;;;19.00;58.50;;;;;;4950165;28;90632;-32
2022/04/13 09:00:13;;;;;;;81.65;52.67;;;19.00;58.50;;;;;;4952954;28;90240;-32
2022/04/13 09:02:48;;;;;;;81.45;53.03;;;19.00;58.50;;;;;;4954367;28;90713;-31
2022/04/13 09:05:34;;;;;;;83.70;52.58;;;19.00;58.60;;;;;;4958743;28;90868;-32
2022/04/13 09:08:09;;;;;;;81.88;52.72;;;19.00;58.70;;;;;;4953080;28;89828;-32
2022/04/13 09:10:36;;;;;;;83.03;52.55;;;19.00;58.70;;;;;;4956016;28;89559;-32
2022/04/13 09:13:02;;;;;;;80.43;52.72;;;19.00;58.70;;;;;;4950961;28;89716;-32
2022/04/13 09:15:28;;;;;;;80.97;52.58;;;19.00;58.60;;;;;;4951130;28;90272;-32
2022/04/13 09:17:55;;;;;;;82.28;52.67;;;19.00;58.50;;;;;;4944989;28;90335;-32
2022/04/13 09:20:21;;;;;;;82.47;53.35;;;19.00;58.50;;;;;;4942586;28;90813;-33
2022/04/13 09:22:50;;;;;;;81.68;52.97;;;19.10;58.40;;;;;;4948348;28;90073;-33
2022/04/13 09:25:19;;;;;;;82.15;53.08;;;19.10;58.40;;;;;;4944197;28;90571;-33
2022/04/13 09:27:46;;;;;;;83.97;52.88;;;19.10;58.30;;;;;;4949504;28;91972;-33
2022/04/13 09:30:13;;;;;;;81.20;52.85;;;19.10;58.30;;;;;;4945306;28;91575;-33
2022/04/13 09:32:38;;;;;;;80.75;52.53;;;19.10;58.30;;;;;;4948181;28;90059;-33
2022/04/13 09:35:06;;;;;;;82.57;52.55;;;19.10;58.20;;;;;;4944237;28;89970;-33
2022/04/13 09:37:31;;;;;;;81.95;52.70;;;19.10;58.20;;;;;;4945843;28;90131;-33
2022/04/13 09:39:59;;;;;;;80.38;52.67;;;19.10;58.10;;;;;;4946775;28;90348;-33
2022/04/13 09:42:27;;;;;;;81.03;53.13;;;19.20;58.10;;;;;;4950184;28;89507;-33
2022/04/13 09:44:57;;;;;;;86.22;53.17;;;19.20;58.10;;;;;;4944232;28;89265;-33
2022/04/13 09:47:30;;;;;;;82.23;53.23;;;19.20;58.10;;;;;;4946923;28;95953;-33
2022/04/13 09:49:56;;;;;;;79.05;52.88;;;19.20;58.00;;;;;;4937037;28;90284;-33
2022/04/13 09:52:41;;;;;;;84.03;53.47;;;19.20;58.00;;;;;;4948507;28;91111;-33
2022/04/13 09:55:08;;;;;;;82.40;53.30;;;19.30;58.70;;;;;;4955324;28;89966;-33
2022/04/13 09:57:34;;;;;;;83.45;53.42;;;19.30;58.00;;;;;;4936804;28;93352;-33
2022/04/13 10:00:05;;;;;;;83.47;53.45;;;19.30;57.90;;;;;;4943423;28;90861;-33
2022/04/13 10:02:39;;;;;;;85.63;53.75;;;19.30;57.90;;;;;;4945560;28;89749;-33
2022/04/13 10:05:07;;;;;;;85.40;53.58;;;19.30;57.90;;;;;;4942428;28;89957;-32
2022/04/13 10:07:32;;;;;;;85.95;53.67;;;19.30;57.80;;;;;;4945855;28;89838;-33
2022/04/13 10:09:58;;;;;;;87.28;54.00;;;19.30;57.90;;;;;;4949754;28;89804;-35
2022/04/13 10:12:24;;;;;;;89.93;53.78;;;19.30;58.10;;;;;;4955735;28;89847;-35
2022/04/13 10:14:50;;;;;;;86.25;53.42;;;19.40;58.30;;;;;;4948461;28;90203;-35
2022/04/13 10:17:16;;;;;;;84.85;54.00;;;19.50;58.40;;;;;;4939067;28;91845;-38
2022/04/13 10:19:52;;;;;;;86.90;53.67;;;19.50;58.40;;;;;;4946460;28;91451;-35
2022/04/13 10:22:17;;;;;;;87.57;53.97;;;19.60;58.50;;;;;;4942966;28;92727;-35
2022/04/13 10:24:43;;;;;;;88.57;54.22;;;19.60;58.00;;;;;;4949277;28;92466;-38
2022/04/13 10:27:11;;;;;;;87.88;54.05;;;19.60;57.80;;;;;;4954708;28;89690;-35
2022/04/13 10:29:41;;;;;;;86.18;54.55;;;19.70;57.50;;;;;;4949342;28;89587;-35
2022/04/13 10:32:15;;;;;;;86.25;54.05;;;19.70;57.50;;;;;;4943484;28;90326;-35
2022/04/13 10:34:49;;;;;;;87.03;53.95;;;19.70;57.30;;;;;;4945634;28;89259;-35
2022/04/13 10:37:20;;;;;;;89.47;54.50;;;19.70;57.10;;;;;;4945719;28;90623;-35
2022/04/13 10:39:48;;;;;;;91.10;54.50;;;19.80;56.80;;;;;;4947038;28;89560;-35
2022/04/13 10:42:16;;;;;;;90.75;54.28;;;19.80;57.10;;;;;;4946414;28;91003;-35
2022/04/13 10:44:53;;;;;;;86.13;54.53;;;19.80;56.40;;;;;;4949329;28;89819;-38
2022/04/13 10:47:30;;;;;;;91.32;55.42;;;19.80;56.20;;;;;;4949374;28;91265;-35
2022/04/13 10:49:59;;;;;;;103.22;55.33;;;19.90;56.50;;;;;;4941177;28;92254;-35
2022/04/13 10:52:42;;;;;;;112.38;55.72;;;20.00;56.60;;;;;;4942547;28;90449;-35
2022/04/13 10:55:12;;;;;;;103.43;55.45;;;20.10;56.70;;;;;;4946344;28;90524;-36
2022/04/13 10:57:49;;;;;;;95.43;55.35;;;20.10;56.70;;;;;;4951990;28;90499;-35
2022/04/13 11:00:18;;;;;;;113.80;56.25;;;20.20;56.90;;;;;;4942539;28;89181;-36
2022/04/13 11:02:52;;;;;;;111.82;56.17;;;20.30;56.90;;;;;;4947998;28;90059;-35
2022/04/13 11:05:18;;;;;;;100.38;55.75;;;20.30;57.00;;;;;;4950665;28;91011;-35
2022/04/13 11:07:44;;;;;;;102.25;56.25;;;20.30;57.00;;;;;;4944360;28;94341;-35
2022/04/13 11:10:17;;;;;;;94.72;55.65;;;20.40;57.10;;;;;;4939061;28;91130;-36
2022/04/13 11:12:44;;;;;;;99.15;55.50;;;20.40;57.10;;;;;;4946723;28;89914;-35
2022/04/13 11:15:10;;;;;;;98.80;56.25;;;20.40;57.10;;;;;;4936816;28;90768;-36
2022/04/13 11:17:41;;;;;;;109.72;56.55;;;20.40;57.10;;;;;;4944083;28;90690;-38
2022/04/13 11:20:14;;;;;;;;;;;20.40;57.20;;;;;;4950675;28;90528;-35
2022/04/13 11:22:39;;;;;;;99.60;56.17;;;20.40;57.30;;;;;;4943404;28;89898;-36
2022/04/13 11:25:05;;;;;;;110.10;56.85;;;20.50;57.40;;;;;;4952938;28;91254;-36
2022/04/13 11:27:52;;;;;;;103.68;56.33;;;20.50;57.20;;;;;;4936665;28;90010;-36
2022/04/13 11:30:18;;;;;;;110.50;56.50;;;20.50;57.30;;;;;;4945087;28;91158;-36
2022/04/13 11:32:45;;;;;;;106.50;55.97;;;20.60;57.30;;;;;;4942279;28;91424;-35
2022/04/13 11:35:25;;;;;;;102.43;56.22;;;20.60;57.20;;;;;;4941739;28;90078;-36
2022/04/13 11:38:05;;;;;;;102.20;56.00;;;20.50;57.20;;;;;;4938925;28;95280;-36
2022/04/13 11:40:31;;;;;;;100.40;56.08;;;20.60;57.60;;;;;;4941367;28;89854;-35
2022/04/13 11:43:00;;;;;;;104.25;56.10;;;20.50;57.20;;;;;;4942119;28;90168;-35
2022/04/13 11:45:26;;;;;;;104.03;56.55;;;20.60;57.10;;;;;;4940584;28;94317;-36
2022/04/13 11:47:54;;;;;;;114.60;56.80;;;20.60;57.50;;;;;;4933435;28;90175;-35
2022/04/13 11:50:24;;;;;;;107.65;56.88;;;20.60;57.20;;;;;;4943317;28;91074;-35
2022/04/13 11:52:59;;;;;;;109.88;55.78;;;20.70;57.20;;;;;;4942749;28;89796;-36
2022/04/13 11:55:26;;;;;;;124.00;57.00;;;20.70;57.10;;;;;;4944194;28;89841;-36
2022/04/13 11:58:04;;;;;;;122.40;57.53;;;20.70;57.00;;;;;;4944417;28;91505;-36
2022/04/13 12:00:55;;;;;;;120.57;57.60;;;20.80;57.30;;;;;;4943984;28;91286;-36
2022/04/13 12:03:34;;;;;;;118.55;56.70;;;20.80;57.20;;;;;;4946598;28;90736;-35
2022/04/13 12:06:21;;;;;;;117.57;57.50;;;20.80;57.20;;;;;;4945000;28;90752;-36
2022/04/13 12:08:56;;;;;;;112.65;56.25;;;20.80;57.30;;;;;;4941183;28;94128;-36
2022/04/13 12:11:46;;;;;;;124.43;56.85;;;20.80;57.30;;;;;;4944522;28;90041;-36
2022/04/13 12:14:30;;;;;;;117.63;56.67;;;20.80;57.30;;;;;;4937710;28;91784;-36
2022/04/13 12:17:00;;;;;;;118.45;56.88;;;20.80;57.30;;;;;;4931719;28;90272;-36
2022/04/13 12:19:42;;;;;;;104.35;57.10;;;20.80;57.20;;;;;;4927005;28;91015;-36
2022/04/13 12:22:19;;;;;;;104.07;56.38;;;20.80;57.00;;;;;;4935684;28;90650;-36
2022/04/13 12:24:59;;;;;;;111.85;56.45;;;20.80;56.90;;;;;;4931174;28;92872;-36
2022/04/13 12:27:25;;;;;;;105.60;57.03;;;20.80;56.80;;;;;;4944222;28;90527;-36